sensor_id;sensor_type;location;lat;lon;timestamp;P1;durP1;ratioP1;P2;durP2;ratioP2
17488;SDS011;8861;52.644;4.734;2022-12-18T00:01:26;152.07;;;47.63;;
17488;SDS011;8861;52.644;4.734;2022-12-18T00:03:55;177.77;;;50.80;;
17488;SDS011;8861;52.644;4.734;2022-12-18T00:06:22;189.70;;;52.83;;
17488;SDS011;8861;52.644;4.734;2022-12-18T00:08:51;160.97;;;48.73;;
17488;SDS011;8861;52.644;4.734;2022-12-18T00:11:21;170.27;;;49.33;;
17488;SDS011;8861;52.644;4.734;2022-12-18T00:13:50;161.63;;;49.60;;
17488;SDS011;8861;52.644;4.734;2022-12-18T00:16:18;171.47;;;51.17;;
17488;SDS011;8861;52.644;4.734;2022-12-18T00:18:47;167.73;;;52.70;;
17488;SDS011;8861;52.644;4.734;2022-12-18T00:21:14;170.23;;;50.83;;
17488;SDS011;8861;52.644;4.734;2022-12-18T00:23:42;181.93;;;52.23;;
17488;SDS011;8861;52.644;4.734;2022-12-18T00:26:11;153.23;;;48.30;;
17488;SDS011;8861;52.644;4.734;2022-12-18T00:28:45;167.30;;;49.53;;
17488;SDS011;8861;52.644;4.734;2022-12-18T00:31:12;174.03;;;52.17;;
17488;SDS011;8861;52.644;4.734;2022-12-18T00:33:41;181.47;;;52.30;;
17488;SDS011;8861;52.644;4.734;2022-12-18T00:36:10;157.10;;;49.20;;
17488;SDS011;8861;52.644;4.734;2022-12-18T00:38:38;160.40;;;49.17;;
17488;SDS011;8861;52.644;4.734;2022-12-18T00:41:06;155.97;;;49.47;;
17488;SDS011;8861;52.644;4.734;2022-12-18T00:43:34;149.27;;;48.03;;
17488;SDS011;8861;52.644;4.734;2022-12-18T00:46:01;183.20;;;50.90;;
17488;SDS011;8861;52.644;4.734;2022-12-18T00:48:29;170.37;;;49.33;;
17488;SDS011;8861;52.644;4.734;2022-12-18T00:50:56;165.60;;;49.40;;
17488;SDS011;8861;52.644;4.734;2022-12-18T00:53:23;147.63;;;48.33;;
17488;SDS011;8861;52.644;4.734;2022-12-18T00:55:50;139.17;;;45.17;;
17488;SDS011;8861;52.644;4.734;2022-12-18T00:58:17;147.33;;;46.17;;
17488;SDS011;8861;52.644;4.734;2022-12-18T01:00:44;141.60;;;46.47;;
17488;SDS011;8861;52.644;4.734;2022-12-18T01:03:13;188.83;;;51.40;;
17488;SDS011;8861;52.644;4.734;2022-12-18T01:05:40;151.60;;;47.33;;
17488;SDS011;8861;52.644;4.734;2022-12-18T01:08:08;153.43;;;46.23;;
17488;SDS011;8861;52.644;4.734;2022-12-18T01:10:35;156.70;;;47.33;;
17488;SDS011;8861;52.644;4.734;2022-12-18T01:13:02;162.30;;;47.30;;
17488;SDS011;8861;52.644;4.734;2022-12-18T01:15:29;155.63;;;48.50;;
17488;SDS011;8861;52.644;4.734;2022-12-18T01:17:56;144.83;;;45.60;;
17488;SDS011;8861;52.644;4.734;2022-12-18T01:20:24;142.70;;;44.97;;
17488;SDS011;8861;52.644;4.734;2022-12-18T01:22:51;145.23;;;45.27;;
17488;SDS011;8861;52.644;4.734;2022-12-18T01:25:18;162.27;;;45.67;;
17488;SDS011;8861;52.644;4.734;2022-12-18T01:27:45;136.73;;;42.77;;
17488;SDS011;8861;52.644;4.734;2022-12-18T01:30:12;154.87;;;44.90;;
17488;SDS011;8861;52.644;4.734;2022-12-18T01:32:39;145.53;;;44.33;;
17488;SDS011;8861;52.644;4.734;2022-12-18T01:35:06;140.23;;;44.37;;
17488;SDS011;8861;52.644;4.734;2022-12-18T01:37:35;138.60;;;45.00;;
17488;SDS011;8861;52.644;4.734;2022-12-18T01:40:02;148.23;;;45.43;;
17488;SDS011;8861;52.644;4.734;2022-12-18T01:42:29;151.43;;;45.37;;
17488;SDS011;8861;52.644;4.734;2022-12-18T01:44:58;152.03;;;44.93;;
17488;SDS011;8861;52.644;4.734;2022-12-18T01:47:32;150.63;;;44.90;;
17488;SDS011;8861;52.644;4.734;2022-12-18T01:50:04;137.53;;;44.13;;
17488;SDS011;8861;52.644;4.734;2022-12-18T01:52:35;144.47;;;45.03;;
17488;SDS011;8861;52.644;4.734;2022-12-18T01:55:06;140.27;;;44.07;;
17488;SDS011;8861;52.644;4.734;2022-12-18T01:57:35;147.47;;;45.57;;
17488;SDS011;8861;52.644;4.734;2022-12-18T02:00:03;152.13;;;46.47;;
17488;SDS011;8861;52.644;4.734;2022-12-18T02:02:33;141.80;;;43.70;;
17488;SDS011;8861;52.644;4.734;2022-12-18T02:05:00;137.20;;;43.60;;
17488;SDS011;8861;52.644;4.734;2022-12-18T02:07:31;145.07;;;44.03;;
17488;SDS011;8861;52.644;4.734;2022-12-18T02:10:10;142.20;;;43.40;;
17488;SDS011;8861;52.644;4.734;2022-12-18T02:12:42;126.57;;;42.13;;
17488;SDS011;8861;52.644;4.734;2022-12-18T02:15:15;132.03;;;44.07;;
17488;SDS011;8861;52.644;4.734;2022-12-18T02:17:52;130.43;;;41.37;;
17488;SDS011;8861;52.644;4.734;2022-12-18T02:20:23;144.20;;;43.13;;
17488;SDS011;8861;52.644;4.734;2022-12-18T02:23:04;127.20;;;41.30;;
17488;SDS011;8861;52.644;4.734;2022-12-18T02:25:40;125.20;;;41.20;;
17488;SDS011;8861;52.644;4.734;2022-12-18T02:28:38;133.00;;;42.43;;
17488;SDS011;8861;52.644;4.734;2022-12-18T02:31:10;126.27;;;41.93;;
17488;SDS011;8861;52.644;4.734;2022-12-18T02:33:40;145.70;;;43.47;;
17488;SDS011;8861;52.644;4.734;2022-12-18T02:36:09;137.30;;;42.40;;
17488;SDS011;8861;52.644;4.734;2022-12-18T02:38:37;143.23;;;43.17;;
17488;SDS011;8861;52.644;4.734;2022-12-18T02:41:05;137.53;;;43.43;;
17488;SDS011;8861;52.644;4.734;2022-12-18T02:43:34;133.50;;;41.00;;
17488;SDS011;8861;52.644;4.734;2022-12-18T02:46:01;147.47;;;44.60;;
17488;SDS011;8861;52.644;4.734;2022-12-18T02:48:53;140.27;;;43.50;;
17488;SDS011;8861;52.644;4.734;2022-12-18T02:51:32;123.33;;;41.67;;
17488;SDS011;8861;52.644;4.734;2022-12-18T02:54:13;144.73;;;43.67;;
17488;SDS011;8861;52.644;4.734;2022-12-18T02:56:50;135.67;;;42.63;;
17488;SDS011;8861;52.644;4.734;2022-12-18T02:59:21;147.10;;;44.07;;
17488;SDS011;8861;52.644;4.734;2022-12-18T03:01:57;138.87;;;43.43;;
17488;SDS011;8861;52.644;4.734;2022-12-18T03:04:29;133.10;;;41.40;;
17488;SDS011;8861;52.644;4.734;2022-12-18T03:07:01;139.97;;;42.00;;
17488;SDS011;8861;52.644;4.734;2022-12-18T03:09:32;153.27;;;44.57;;
17488;SDS011;8861;52.644;4.734;2022-12-18T03:12:04;139.43;;;42.70;;
17488;SDS011;8861;52.644;4.734;2022-12-18T03:14:49;143.27;;;42.73;;
17488;SDS011;8861;52.644;4.734;2022-12-18T03:17:22;150.07;;;44.93;;
17488;SDS011;8861;52.644;4.734;2022-12-18T03:19:51;141.33;;;44.07;;
17488;SDS011;8861;52.644;4.734;2022-12-18T03:22:22;150.17;;;44.50;;
17488;SDS011;8861;52.644;4.734;2022-12-18T03:24:50;131.33;;;42.53;;
17488;SDS011;8861;52.644;4.734;2022-12-18T03:27:20;135.90;;;41.90;;
17488;SDS011;8861;52.644;4.734;2022-12-18T03:29:51;137.70;;;41.20;;
17488;SDS011;8861;52.644;4.734;2022-12-18T03:32:28;135.73;;;42.13;;
17488;SDS011;8861;52.644;4.734;2022-12-18T03:35:01;151.73;;;44.30;;
17488;SDS011;8861;52.644;4.734;2022-12-18T03:37:30;137.90;;;41.20;;
17488;SDS011;8861;52.644;4.734;2022-12-18T03:39:57;143.87;;;43.10;;
17488;SDS011;8861;52.644;4.734;2022-12-18T03:42:27;138.07;;;42.23;;
17488;SDS011;8861;52.644;4.734;2022-12-18T03:45:01;145.60;;;42.60;;
17488;SDS011;8861;52.644;4.734;2022-12-18T03:47:35;147.17;;;42.77;;
17488;SDS011;8861;52.644;4.734;2022-12-18T03:50:11;129.10;;;40.73;;
17488;SDS011;8861;52.644;4.734;2022-12-18T03:52:45;136.67;;;41.87;;
17488;SDS011;8861;52.644;4.734;2022-12-18T03:55:16;145.37;;;43.03;;
17488;SDS011;8861;52.644;4.734;2022-12-18T03:57:47;135.97;;;41.60;;
17488;SDS011;8861;52.644;4.734;2022-12-18T04:00:16;128.73;;;40.17;;
17488;SDS011;8861;52.644;4.734;2022-12-18T04:02:44;134.53;;;41.00;;
17488;SDS011;8861;52.644;4.734;2022-12-18T04:05:15;141.23;;;42.70;;
17488;SDS011;8861;52.644;4.734;2022-12-18T04:07:45;134.00;;;39.97;;
17488;SDS011;8861;52.644;4.734;2022-12-18T04:10:13;129.40;;;40.07;;
17488;SDS011;8861;52.644;4.734;2022-12-18T04:12:42;121.60;;;38.90;;
17488;SDS011;8861;52.644;4.734;2022-12-18T04:15:11;130.53;;;41.70;;
17488;SDS011;8861;52.644;4.734;2022-12-18T04:17:38;123.10;;;39.47;;
17488;SDS011;8861;52.644;4.734;2022-12-18T04:20:09;120.47;;;38.47;;
17488;SDS011;8861;52.644;4.734;2022-12-18T04:22:37;122.53;;;38.03;;
17488;SDS011;8861;52.644;4.734;2022-12-18T04:25:04;129.60;;;40.70;;
17488;SDS011;8861;52.644;4.734;2022-12-18T04:27:31;130.53;;;40.03;;
17488;SDS011;8861;52.644;4.734;2022-12-18T04:29:58;119.23;;;39.23;;
17488;SDS011;8861;52.644;4.734;2022-12-18T04:32:27;118.47;;;38.70;;
17488;SDS011;8861;52.644;4.734;2022-12-18T04:34:54;109.23;;;38.07;;
17488;SDS011;8861;52.644;4.734;2022-12-18T04:37:21;125.53;;;39.33;;
17488;SDS011;8861;52.644;4.734;2022-12-18T04:39:48;123.27;;;41.10;;
17488;SDS011;8861;52.644;4.734;2022-12-18T04:42:14;131.00;;;41.90;;
17488;SDS011;8861;52.644;4.734;2022-12-18T04:44:41;126.27;;;41.13;;
17488;SDS011;8861;52.644;4.734;2022-12-18T04:47:08;133.50;;;42.17;;
17488;SDS011;8861;52.644;4.734;2022-12-18T04:49:36;120.93;;;39.13;;
17488;SDS011;8861;52.644;4.734;2022-12-18T04:52:03;122.00;;;38.43;;
17488;SDS011;8861;52.644;4.734;2022-12-18T04:54:30;127.70;;;40.53;;
17488;SDS011;8861;52.644;4.734;2022-12-18T04:56:57;111.30;;;38.03;;
17488;SDS011;8861;52.644;4.734;2022-12-18T04:59:24;108.77;;;37.77;;
17488;SDS011;8861;52.644;4.734;2022-12-18T05:01:51;115.37;;;38.33;;
17488;SDS011;8861;52.644;4.734;2022-12-18T05:04:18;102.50;;;36.40;;
17488;SDS011;8861;52.644;4.734;2022-12-18T05:06:46;109.20;;;37.50;;
17488;SDS011;8861;52.644;4.734;2022-12-18T05:09:13;108.53;;;37.87;;
17488;SDS011;8861;52.644;4.734;2022-12-18T05:11:40;106.83;;;38.13;;
17488;SDS011;8861;52.644;4.734;2022-12-18T05:14:07;103.33;;;36.40;;
17488;SDS011;8861;52.644;4.734;2022-12-18T05:16:34;102.27;;;36.93;;
17488;SDS011;8861;52.644;4.734;2022-12-18T05:19:01;96.87;;;35.30;;
17488;SDS011;8861;52.644;4.734;2022-12-18T05:21:28;95.00;;;34.60;;
17488;SDS011;8861;52.644;4.734;2022-12-18T05:23:56;88.33;;;33.57;;
17488;SDS011;8861;52.644;4.734;2022-12-18T05:26:23;91.43;;;33.33;;
17488;SDS011;8861;52.644;4.734;2022-12-18T05:28:50;89.70;;;32.97;;
17488;SDS011;8861;52.644;4.734;2022-12-18T05:31:17;86.63;;;32.97;;
17488;SDS011;8861;52.644;4.734;2022-12-18T05:33:44;81.63;;;31.17;;
17488;SDS011;8861;52.644;4.734;2022-12-18T05:36:11;89.17;;;33.20;;
17488;SDS011;8861;52.644;4.734;2022-12-18T05:38:38;93.17;;;34.03;;
17488;SDS011;8861;52.644;4.734;2022-12-18T05:41:07;89.73;;;33.20;;
17488;SDS011;8861;52.644;4.734;2022-12-18T05:43:35;87.27;;;32.33;;
17488;SDS011;8861;52.644;4.734;2022-12-18T05:46:03;91.50;;;33.90;;
17488;SDS011;8861;52.644;4.734;2022-12-18T05:48:31;89.03;;;33.23;;
17488;SDS011;8861;52.644;4.734;2022-12-18T05:51:02;83.73;;;31.77;;
17488;SDS011;8861;52.644;4.734;2022-12-18T05:53:31;84.47;;;33.03;;
17488;SDS011;8861;52.644;4.734;2022-12-18T05:55:59;82.57;;;31.20;;
17488;SDS011;8861;52.644;4.734;2022-12-18T05:58:29;83.97;;;32.87;;
17488;SDS011;8861;52.644;4.734;2022-12-18T06:00:56;86.03;;;32.90;;
17488;SDS011;8861;52.644;4.734;2022-12-18T06:03:23;79.43;;;30.67;;
17488;SDS011;8861;52.644;4.734;2022-12-18T06:05:50;80.87;;;32.83;;
17488;SDS011;8861;52.644;4.734;2022-12-18T06:08:17;78.90;;;30.60;;
17488;SDS011;8861;52.644;4.734;2022-12-18T06:10:49;78.43;;;31.77;;
17488;SDS011;8861;52.644;4.734;2022-12-18T06:13:18;78.23;;;31.03;;
17488;SDS011;8861;52.644;4.734;2022-12-18T06:15:46;82.77;;;31.60;;
17488;SDS011;8861;52.644;4.734;2022-12-18T06:18:13;71.00;;;30.20;;
17488;SDS011;8861;52.644;4.734;2022-12-18T06:20:40;74.13;;;30.87;;
17488;SDS011;8861;52.644;4.734;2022-12-18T06:23:07;74.70;;;29.77;;
17488;SDS011;8861;52.644;4.734;2022-12-18T06:25:36;75.10;;;31.13;;
17488;SDS011;8861;52.644;4.734;2022-12-18T06:28:04;79.37;;;31.33;;
17488;SDS011;8861;52.644;4.734;2022-12-18T06:30:31;76.47;;;31.07;;
17488;SDS011;8861;52.644;4.734;2022-12-18T06:32:59;93.53;;;33.57;;
17488;SDS011;8861;52.644;4.734;2022-12-18T06:35:26;84.10;;;32.57;;
17488;SDS011;8861;52.644;4.734;2022-12-18T06:37:53;81.17;;;32.83;;
17488;SDS011;8861;52.644;4.734;2022-12-18T06:40:20;81.90;;;32.73;;
17488;SDS011;8861;52.644;4.734;2022-12-18T06:42:47;84.17;;;33.67;;
17488;SDS011;8861;52.644;4.734;2022-12-18T06:45:14;86.90;;;34.37;;
17488;SDS011;8861;52.644;4.734;2022-12-18T06:47:41;82.87;;;32.43;;
17488;SDS011;8861;52.644;4.734;2022-12-18T06:50:09;88.30;;;34.90;;
17488;SDS011;8861;52.644;4.734;2022-12-18T06:52:37;98.63;;;36.17;;
17488;SDS011;8861;52.644;4.734;2022-12-18T06:55:05;91.87;;;36.30;;
17488;SDS011;8861;52.644;4.734;2022-12-18T06:57:37;89.20;;;35.50;;
17488;SDS011;8861;52.644;4.734;2022-12-18T07:00:05;85.83;;;34.70;;
17488;SDS011;8861;52.644;4.734;2022-12-18T07:02:32;90.67;;;34.63;;
17488;SDS011;8861;52.644;4.734;2022-12-18T07:05:00;91.87;;;36.67;;
17488;SDS011;8861;52.644;4.734;2022-12-18T07:07:28;87.40;;;35.33;;
17488;SDS011;8861;52.644;4.734;2022-12-18T07:09:55;84.37;;;34.83;;
17488;SDS011;8861;52.644;4.734;2022-12-18T07:12:22;83.93;;;35.33;;
17488;SDS011;8861;52.644;4.734;2022-12-18T07:14:49;81.43;;;34.23;;
17488;SDS011;8861;52.644;4.734;2022-12-18T07:17:16;86.67;;;36.10;;
17488;SDS011;8861;52.644;4.734;2022-12-18T07:19:43;88.73;;;36.03;;
17488;SDS011;8861;52.644;4.734;2022-12-18T09:44:55;49.67;;;25.27;;
17488;SDS011;8861;52.644;4.734;2022-12-18T09:47:23;48.93;;;25.87;;
17488;SDS011;8861;52.644;4.734;2022-12-18T09:49:55;48.13;;;25.40;;
17488;SDS011;8861;52.644;4.734;2022-12-18T09:52:26;48.27;;;25.83;;
17488;SDS011;8861;52.644;4.734;2022-12-18T09:54:58;50.33;;;27.03;;
17488;SDS011;8861;52.644;4.734;2022-12-18T09:57:31;52.60;;;27.23;;
17488;SDS011;8861;52.644;4.734;2022-12-18T10:00:04;49.30;;;26.80;;
17488;SDS011;8861;52.644;4.734;2022-12-18T10:02:43;47.73;;;26.07;;
17488;SDS011;8861;52.644;4.734;2022-12-18T10:05:11;45.70;;;26.37;;
17488;SDS011;8861;52.644;4.734;2022-12-18T10:07:43;49.30;;;27.23;;
17488;SDS011;8861;52.644;4.734;2022-12-18T10:10:19;51.70;;;27.83;;
17488;SDS011;8861;52.644;4.734;2022-12-18T10:12:56;53.27;;;29.40;;
17488;SDS011;8861;52.644;4.734;2022-12-18T10:15:31;51.63;;;28.37;;
17488;SDS011;8861;52.644;4.734;2022-12-18T10:18:05;48.27;;;26.77;;
17488;SDS011;8861;52.644;4.734;2022-12-18T10:20:41;48.47;;;27.57;;
17488;SDS011;8861;52.644;4.734;2022-12-18T10:23:12;46.37;;;26.53;;
17488;SDS011;8861;52.644;4.734;2022-12-18T10:25:50;51.63;;;29.03;;
17488;SDS011;8861;52.644;4.734;2022-12-18T10:28:21;50.73;;;27.70;;
17488;SDS011;8861;52.644;4.734;2022-12-18T10:30:50;53.80;;;29.73;;
17488;SDS011;8861;52.644;4.734;2022-12-18T10:33:19;50.57;;;27.57;;
17488;SDS011;8861;52.644;4.734;2022-12-18T10:35:47;50.57;;;28.40;;
17488;SDS011;8861;52.644;4.734;2022-12-18T10:38:20;49.23;;;27.47;;
17488;SDS011;8861;52.644;4.734;2022-12-18T10:40:50;52.93;;;28.87;;
17488;SDS011;8861;52.644;4.734;2022-12-18T10:43:20;54.13;;;28.70;;
17488;SDS011;8861;52.644;4.734;2022-12-18T10:48:49;50.33;;;28.80;;
17488;SDS011;8861;52.644;4.734;2022-12-18T10:51:19;52.60;;;28.53;;
17488;SDS011;8861;52.644;4.734;2022-12-18T10:53:51;48.07;;;27.03;;
17488;SDS011;8861;52.644;4.734;2022-12-18T10:56:21;53.40;;;27.73;;
17488;SDS011;8861;52.644;4.734;2022-12-18T10:58:54;47.00;;;26.20;;
17488;SDS011;8861;52.644;4.734;2022-12-18T11:01:24;46.67;;;26.43;;
17488;SDS011;8861;52.644;4.734;2022-12-18T11:04:01;43.20;;;24.73;;
17488;SDS011;8861;52.644;4.734;2022-12-18T11:06:33;49.80;;;27.90;;
17488;SDS011;8861;52.644;4.734;2022-12-18T11:09:18;52.07;;;28.60;;
17488;SDS011;8861;52.644;4.734;2022-12-18T11:11:47;47.40;;;26.50;;
17488;SDS011;8861;52.644;4.734;2022-12-18T11:14:18;46.87;;;27.07;;
17488;SDS011;8861;52.644;4.734;2022-12-18T11:16:50;45.90;;;26.77;;
17488;SDS011;8861;52.644;4.734;2022-12-18T11:19:27;48.80;;;27.30;;
17488;SDS011;8861;52.644;4.734;2022-12-18T11:21:58;48.47;;;27.13;;
17488;SDS011;8861;52.644;4.734;2022-12-18T11:24:27;51.60;;;28.10;;
17488;SDS011;8861;52.644;4.734;2022-12-18T11:26:57;48.63;;;27.33;;
17488;SDS011;8861;52.644;4.734;2022-12-18T11:29:28;45.10;;;26.40;;
17488;SDS011;8861;52.644;4.734;2022-12-18T11:35:03;47.63;;;27.33;;
17488;SDS011;8861;52.644;4.734;2022-12-18T11:37:38;47.97;;;26.10;;
17488;SDS011;8861;52.644;4.734;2022-12-18T11:40:10;47.77;;;26.03;;
17488;SDS011;8861;52.644;4.734;2022-12-18T11:42:42;44.20;;;26.87;;
17488;SDS011;8861;52.644;4.734;2022-12-18T11:45:20;43.70;;;26.30;;
17488;SDS011;8861;52.644;4.734;2022-12-18T11:47:58;47.73;;;26.30;;
17488;SDS011;8861;52.644;4.734;2022-12-18T11:50:29;45.77;;;26.33;;
17488;SDS011;8861;52.644;4.734;2022-12-18T11:53:03;45.47;;;26.23;;
17488;SDS011;8861;52.644;4.734;2022-12-18T11:55:32;44.90;;;26.30;;
17488;SDS011;8861;52.644;4.734;2022-12-18T11:58:08;47.30;;;26.33;;
17488;SDS011;8861;52.644;4.734;2022-12-18T12:00:45;44.67;;;25.80;;
17488;SDS011;8861;52.644;4.734;2022-12-18T12:03:24;45.80;;;26.77;;
17488;SDS011;8861;52.644;4.734;2022-12-18T12:06:08;49.63;;;26.83;;
17488;SDS011;8861;52.644;4.734;2022-12-18T12:08:48;43.73;;;25.53;;
17488;SDS011;8861;52.644;4.734;2022-12-18T12:11:29;45.63;;;26.57;;
17488;SDS011;8861;52.644;4.734;2022-12-18T12:14:09;44.20;;;25.77;;
17488;SDS011;8861;52.644;4.734;2022-12-18T12:16:46;45.33;;;25.87;;
17488;SDS011;8861;52.644;4.734;2022-12-18T12:19:24;47.40;;;26.33;;
17488;SDS011;8861;52.644;4.734;2022-12-18T12:22:03;46.50;;;26.17;;
17488;SDS011;8861;52.644;4.734;2022-12-18T12:24:38;44.97;;;25.70;;
17488;SDS011;8861;52.644;4.734;2022-12-18T12:27:15;43.73;;;24.87;;
17488;SDS011;8861;52.644;4.734;2022-12-18T12:29:50;48.47;;;27.67;;
17488;SDS011;8861;52.644;4.734;2022-12-18T12:32:30;47.30;;;26.27;;
17488;SDS011;8861;52.644;4.734;2022-12-18T12:35:21;47.63;;;26.40;;
17488;SDS011;8861;52.644;4.734;2022-12-18T12:38:05;47.53;;;27.20;;
17488;SDS011;8861;52.644;4.734;2022-12-18T12:40:38;45.60;;;25.73;;
17488;SDS011;8861;52.644;4.734;2022-12-18T12:43:21;47.40;;;25.53;;
17488;SDS011;8861;52.644;4.734;2022-12-18T12:45:53;41.23;;;24.53;;
17488;SDS011;8861;52.644;4.734;2022-12-18T12:48:34;46.07;;;25.73;;
17488;SDS011;8861;52.644;4.734;2022-12-18T12:51:10;43.70;;;26.00;;
17488;SDS011;8861;52.644;4.734;2022-12-18T12:53:40;45.17;;;26.40;;
17488;SDS011;8861;52.644;4.734;2022-12-18T12:56:08;45.40;;;25.40;;
17488;SDS011;8861;52.644;4.734;2022-12-18T12:58:41;46.07;;;26.57;;
17488;SDS011;8861;52.644;4.734;2022-12-18T13:01:16;43.07;;;24.50;;
17488;SDS011;8861;52.644;4.734;2022-12-18T13:03:55;46.47;;;26.50;;
17488;SDS011;8861;52.644;4.734;2022-12-18T13:06:32;45.23;;;24.87;;
17488;SDS011;8861;52.644;4.734;2022-12-18T13:09:06;46.63;;;26.40;;
17488;SDS011;8861;52.644;4.734;2022-12-18T13:11:37;43.90;;;24.97;;
17488;SDS011;8861;52.644;4.734;2022-12-18T13:14:24;44.83;;;25.20;;
17488;SDS011;8861;52.644;4.734;2022-12-18T13:19:40;40.73;;;24.10;;
17488;SDS011;8861;52.644;4.734;2022-12-18T13:22:20;46.00;;;26.23;;
17488;SDS011;8861;52.644;4.734;2022-12-18T13:24:49;42.20;;;24.07;;
17488;SDS011;8861;52.644;4.734;2022-12-18T13:36:16;43.70;;;24.53;;
17488;SDS011;8861;52.644;4.734;2022-12-18T13:45:41;36.80;;;21.77;;
17488;SDS011;8861;52.644;4.734;2022-12-18T13:48:17;39.90;;;22.93;;
17488;SDS011;8861;52.644;4.734;2022-12-18T13:50:55;40.57;;;23.07;;
17488;SDS011;8861;52.644;4.734;2022-12-18T13:53:27;40.23;;;23.20;;
17488;SDS011;8861;52.644;4.734;2022-12-18T13:55:58;39.30;;;22.87;;
17488;SDS011;8861;52.644;4.734;2022-12-18T13:58:25;42.43;;;23.23;;
17488;SDS011;8861;52.644;4.734;2022-12-18T14:00:52;40.93;;;23.63;;
17488;SDS011;8861;52.644;4.734;2022-12-18T14:03:20;39.73;;;23.07;;
17488;SDS011;8861;52.644;4.734;2022-12-18T14:05:52;43.83;;;23.73;;
17488;SDS011;8861;52.644;4.734;2022-12-18T14:08:27;45.30;;;25.50;;
17488;SDS011;8861;52.644;4.734;2022-12-18T14:11:00;42.63;;;23.87;;
17488;SDS011;8861;52.644;4.734;2022-12-18T14:13:30;41.53;;;24.03;;
17488;SDS011;8861;52.644;4.734;2022-12-18T14:16:00;42.93;;;24.93;;
17488;SDS011;8861;52.644;4.734;2022-12-18T14:18:31;44.23;;;24.97;;
17488;SDS011;8861;52.644;4.734;2022-12-18T14:21:04;46.93;;;26.17;;
17488;SDS011;8861;52.644;4.734;2022-12-18T14:23:33;44.70;;;24.90;;
17488;SDS011;8861;52.644;4.734;2022-12-18T14:26:17;44.30;;;25.27;;
17488;SDS011;8861;52.644;4.734;2022-12-18T14:28:48;45.60;;;24.83;;
17488;SDS011;8861;52.644;4.734;2022-12-18T14:31:18;42.63;;;24.60;;
17488;SDS011;8861;52.644;4.734;2022-12-18T14:33:45;43.87;;;24.87;;
17488;SDS011;8861;52.644;4.734;2022-12-18T14:36:14;42.97;;;24.80;;
17488;SDS011;8861;52.644;4.734;2022-12-18T14:38:43;42.80;;;24.40;;
17488;SDS011;8861;52.644;4.734;2022-12-18T14:41:15;46.00;;;25.27;;
17488;SDS011;8861;52.644;4.734;2022-12-18T14:43:44;42.10;;;23.43;;
17488;SDS011;8861;52.644;4.734;2022-12-18T14:46:27;44.90;;;24.10;;
17488;SDS011;8861;52.644;4.734;2022-12-18T14:48:57;40.20;;;23.67;;
17488;SDS011;8861;52.644;4.734;2022-12-18T14:51:26;42.43;;;24.23;;
17488;SDS011;8861;52.644;4.734;2022-12-18T14:53:55;43.60;;;24.97;;
17488;SDS011;8861;52.644;4.734;2022-12-18T14:56:27;41.20;;;23.37;;
17488;SDS011;8861;52.644;4.734;2022-12-18T14:58:55;45.30;;;24.20;;
17488;SDS011;8861;52.644;4.734;2022-12-18T15:01:25;43.53;;;24.00;;
17488;SDS011;8861;52.644;4.734;2022-12-18T15:03:55;41.43;;;22.93;;
17488;SDS011;8861;52.644;4.734;2022-12-18T15:06:33;43.50;;;24.17;;
17488;SDS011;8861;52.644;4.734;2022-12-18T15:09:03;44.53;;;24.33;;
17488;SDS011;8861;52.644;4.734;2022-12-18T15:11:43;43.33;;;23.27;;
17488;SDS011;8861;52.644;4.734;2022-12-18T15:14:22;46.13;;;24.40;;
17488;SDS011;8861;52.644;4.734;2022-12-18T15:17:05;44.37;;;24.87;;
17488;SDS011;8861;52.644;4.734;2022-12-18T15:19:41;46.57;;;24.73;;
17488;SDS011;8861;52.644;4.734;2022-12-18T15:22:21;41.83;;;23.70;;
17488;SDS011;8861;52.644;4.734;2022-12-18T15:24:51;43.40;;;22.97;;
17488;SDS011;8861;52.644;4.734;2022-12-18T15:27:21;43.77;;;23.30;;
17488;SDS011;8861;52.644;4.734;2022-12-18T15:30:00;42.70;;;23.57;;
17488;SDS011;8861;52.644;4.734;2022-12-18T15:32:28;42.20;;;23.23;;
17488;SDS011;8861;52.644;4.734;2022-12-18T15:35:02;42.00;;;23.23;;
17488;SDS011;8861;52.644;4.734;2022-12-18T15:37:30;42.50;;;23.83;;
17488;SDS011;8861;52.644;4.734;2022-12-18T15:39:57;40.80;;;23.50;;
17488;SDS011;8861;52.644;4.734;2022-12-18T15:42:25;47.87;;;24.80;;
17488;SDS011;8861;52.644;4.734;2022-12-18T15:45:11;42.10;;;24.13;;
17488;SDS011;8861;52.644;4.734;2022-12-18T15:47:39;42.67;;;23.30;;
17488;SDS011;8861;52.644;4.734;2022-12-18T15:50:07;44.73;;;24.27;;
17488;SDS011;8861;52.644;4.734;2022-12-18T15:52:36;43.00;;;24.43;;
17488;SDS011;8861;52.644;4.734;2022-12-18T15:55:08;43.40;;;23.63;;
17488;SDS011;8861;52.644;4.734;2022-12-18T15:57:56;46.67;;;24.03;;
17488;SDS011;8861;52.644;4.734;2022-12-18T16:00:23;45.33;;;24.23;;
17488;SDS011;8861;52.644;4.734;2022-12-18T16:02:50;45.27;;;24.63;;
17488;SDS011;8861;52.644;4.734;2022-12-18T16:05:18;48.93;;;26.13;;
17488;SDS011;8861;52.644;4.734;2022-12-18T16:07:46;47.53;;;26.27;;
17488;SDS011;8861;52.644;4.734;2022-12-18T16:10:14;42.97;;;23.33;;
17488;SDS011;8861;52.644;4.734;2022-12-18T16:12:41;43.00;;;24.37;;
17488;SDS011;8861;52.644;4.734;2022-12-18T16:15:11;46.97;;;25.60;;
17488;SDS011;8861;52.644;4.734;2022-12-18T16:17:40;46.73;;;25.60;;
17488;SDS011;8861;52.644;4.734;2022-12-18T16:20:08;44.23;;;24.37;;
17488;SDS011;8861;52.644;4.734;2022-12-18T16:22:40;49.40;;;26.80;;
17488;SDS011;8861;52.644;4.734;2022-12-18T16:25:08;46.20;;;24.70;;
17488;SDS011;8861;52.644;4.734;2022-12-18T16:27:41;44.97;;;24.13;;
17488;SDS011;8861;52.644;4.734;2022-12-18T16:30:09;45.87;;;24.50;;
17488;SDS011;8861;52.644;4.734;2022-12-18T16:32:41;43.60;;;24.17;;
17488;SDS011;8861;52.644;4.734;2022-12-18T16:35:09;45.00;;;24.23;;
17488;SDS011;8861;52.644;4.734;2022-12-18T16:37:37;43.03;;;23.53;;
17488;SDS011;8861;52.644;4.734;2022-12-18T16:40:05;44.07;;;23.93;;
17488;SDS011;8861;52.644;4.734;2022-12-18T16:42:34;43.07;;;24.17;;
17488;SDS011;8861;52.644;4.734;2022-12-18T16:45:01;42.03;;;23.67;;
17488;SDS011;8861;52.644;4.734;2022-12-18T16:47:30;47.47;;;25.50;;
17488;SDS011;8861;52.644;4.734;2022-12-18T16:49:57;43.67;;;24.70;;
17488;SDS011;8861;52.644;4.734;2022-12-18T16:52:24;48.77;;;25.47;;
17488;SDS011;8861;52.644;4.734;2022-12-18T16:54:51;46.70;;;25.07;;
17488;SDS011;8861;52.644;4.734;2022-12-18T16:57:19;45.43;;;26.07;;
17488;SDS011;8861;52.644;4.734;2022-12-18T16:59:46;48.40;;;26.00;;
17488;SDS011;8861;52.644;4.734;2022-12-18T17:02:15;48.20;;;26.10;;
17488;SDS011;8861;52.644;4.734;2022-12-18T17:04:44;47.97;;;26.30;;
17488;SDS011;8861;52.644;4.734;2022-12-18T17:07:11;45.37;;;25.33;;
17488;SDS011;8861;52.644;4.734;2022-12-18T17:09:38;43.87;;;24.63;;
17488;SDS011;8861;52.644;4.734;2022-12-18T17:12:06;47.20;;;24.77;;
17488;SDS011;8861;52.644;4.734;2022-12-18T17:14:34;46.57;;;25.60;;
17488;SDS011;8861;52.644;4.734;2022-12-18T17:17:01;45.53;;;25.57;;
17488;SDS011;8861;52.644;4.734;2022-12-18T17:19:28;49.00;;;26.33;;
17488;SDS011;8861;52.644;4.734;2022-12-18T17:21:57;46.07;;;25.33;;
17488;SDS011;8861;52.644;4.734;2022-12-18T17:24:24;50.33;;;26.03;;
17488;SDS011;8861;52.644;4.734;2022-12-18T17:26:51;46.63;;;25.43;;
17488;SDS011;8861;52.644;4.734;2022-12-18T17:29:18;50.10;;;27.53;;
17488;SDS011;8861;52.644;4.734;2022-12-18T17:31:46;48.73;;;25.67;;
17488;SDS011;8861;52.644;4.734;2022-12-18T17:34:13;48.23;;;26.00;;
17488;SDS011;8861;52.644;4.734;2022-12-18T17:36:40;45.67;;;24.40;;
17488;SDS011;8861;52.644;4.734;2022-12-18T17:39:14;45.17;;;24.37;;